Messwerte Zeltweg

Temperatur

Temperatur
°C
1619002800 13.00 13.00 15
1619006400 14.00 14.00 13
1619010000 15.00 15.00 14
1619013600 16.00 16.00 13
1619017200 17.00 17.00 14
1619020800 18.00 18.00
1619024400 19.00 19.00
1619028000 20.00 20.00 9
1619031600 21.00 21.00 7
1619035200 22.00 22.00 7
1619038800 23.00 23.00 7
1619042400 0.00 0.00
1619046000 1.00 1.00
1619049600 2.00 2.00 3
1619053200 3.00 3.00
1619056800 4.00 4.00
1619060400 5.00 5.00 3
1619064000 6.00 6.00 1
1619067600 7.00 7.00 1
1619071200 8.00 8.00 3
1619074800 9.00 9.00 7
1619078400 10.00 10.00 9
1619082000 11.00 11.00 12
1619085600 12.00 12.00 14

Aktuellste Messwerte

Wettercharakter
Wetter: wechselnd bewölkt
Temperatur
15 °C
Feuchtigkeit
40 %
Wind
20 km/hWindrichtung: West
Luftdruck
1017 hPa
Messzeit: 22. April 2021, 13.00Datenquelle: METAR

Weitere Messstationen in der Nähe

Messstation Temperatur Entfernung
Graz 13 °C 56 km
Klagenfurt 14 °C 69 km
Maribor 18 °C 107 km
Ljubljana 17 °C 111 km
Tarvisio 13 °C 118 km
Linz 14 °C 122 km
Vöslau 14 °C 142 km

Wind

Windrichtung Böen Mittelwind
° km/h km/h
1619002800 13.00 12.00 - 13.00 70° 5
1619006400 14.00 13.00 - 14.00 20° 20
1619010000 15.00 14.00 - 15.00 5
1619013600 16.00 15.00 - 16.00 200° 20
1619017200 17.00 16.00 - 17.00 5
1619020800 18.00 17.00 - 18.00
1619024400 19.00 18.00 - 19.00
1619028000 20.00 19.00 - 20.00 330° 10
1619031600 21.00 20.00 - 21.00 5
1619035200 22.00 21.00 - 22.00 5
1619038800 23.00 22.00 - 23.00 5
1619042400 0.00 23.00 - 0.00
1619046000 1.00 0.00 - 1.00
1619049600 2.00 1.00 - 2.00 110° 5
1619053200 3.00 2.00 - 3.00
1619056800 4.00 3.00 - 4.00
1619060400 5.00 4.00 - 5.00 0
1619064000 6.00 5.00 - 6.00 290° 5
1619067600 7.00 6.00 - 7.00 0
1619071200 8.00 7.00 - 8.00 0
1619074800 9.00 8.00 - 9.00 5
1619078400 10.00 9.00 - 10.00 5
1619082000 11.00 10.00 - 11.00 5
1619085600 12.00 11.00 - 12.00 270° 15

Ihre Wetterstation

Fehlt Ihre Wetterstation auf unserem Portal?

Schreiben Sie an network@meteonews.ch

Klima

Wann ist es am wärmsten? Wann regnet es am wenigsten? Unsere Klimadaten geben Auskunft.